sensor_id;sensor_type;location;lat;lon;timestamp;P1;durP1;ratioP1;P2;durP2;ratioP2
8665;SDS011;4370;48.916;8.380;2023-04-25T00:01:16;2.73;;;2.37;;
8665;SDS011;4370;48.916;8.380;2023-04-25T00:03:42;2.83;;;2.30;;
8665;SDS011;4370;48.916;8.380;2023-04-25T00:06:08;2.57;;;2.37;;
8665;SDS011;4370;48.916;8.380;2023-04-25T00:08:34;3.60;;;2.70;;
8665;SDS011;4370;48.916;8.380;2023-04-25T00:11:00;3.07;;;2.77;;
8665;SDS011;4370;48.916;8.380;2023-04-25T00:13:26;4.80;;;2.57;;
8665;SDS011;4370;48.916;8.380;2023-04-25T00:15:52;2.60;;;2.40;;
8665;SDS011;4370;48.916;8.380;2023-04-25T00:18:18;2.50;;;2.30;;
8665;SDS011;4370;48.916;8.380;2023-04-25T00:20:45;2.90;;;2.40;;
8665;SDS011;4370;48.916;8.380;2023-04-25T00:23:17;2.90;;;2.30;;
8665;SDS011;4370;48.916;8.380;2023-04-25T00:25:52;4.20;;;2.77;;
8665;SDS011;4370;48.916;8.380;2023-04-25T00:28:17;4.20;;;2.50;;
8665;SDS011;4370;48.916;8.380;2023-04-25T00:30:43;3.03;;;2.50;;
8665;SDS011;4370;48.916;8.380;2023-04-25T00:33:09;2.50;;;2.30;;
8665;SDS011;4370;48.916;8.380;2023-04-25T00:35:35;3.10;;;2.40;;
8665;SDS011;4370;48.916;8.380;2023-04-25T00:38:01;2.73;;;2.53;;
8665;SDS011;4370;48.916;8.380;2023-04-25T00:40:27;4.23;;;2.80;;
8665;SDS011;4370;48.916;8.380;2023-04-25T00:42:53;3.20;;;2.83;;
8665;SDS011;4370;48.916;8.380;2023-04-25T00:45:19;3.27;;;2.67;;
8665;SDS011;4370;48.916;8.380;2023-04-25T00:47:45;5.77;;;3.10;;
8665;SDS011;4370;48.916;8.380;2023-04-25T00:50:12;2.90;;;2.60;;
8665;SDS011;4370;48.916;8.380;2023-04-25T00:52:38;2.73;;;2.53;;
8665;SDS011;4370;48.916;8.380;2023-04-25T00:55:06;4.20;;;2.90;;
8665;SDS011;4370;48.916;8.380;2023-04-25T00:57:33;3.50;;;2.80;;
8665;SDS011;4370;48.916;8.380;2023-04-25T00:59:59;3.80;;;3.17;;
8665;SDS011;4370;48.916;8.380;2023-04-25T01:02:25;3.63;;;3.10;;
8665;SDS011;4370;48.916;8.380;2023-04-25T01:04:52;3.33;;;2.80;;
8665;SDS011;4370;48.916;8.380;2023-04-25T01:07:18;3.30;;;2.87;;
8665;SDS011;4370;48.916;8.380;2023-04-25T01:09:44;3.73;;;3.07;;
8665;SDS011;4370;48.916;8.380;2023-04-25T01:12:09;4.63;;;3.43;;
8665;SDS011;4370;48.916;8.380;2023-04-25T01:14:35;4.80;;;3.00;;
8665;SDS011;4370;48.916;8.380;2023-04-25T01:17:01;3.60;;;3.10;;
8665;SDS011;4370;48.916;8.380;2023-04-25T01:19:27;4.17;;;3.00;;
8665;SDS011;4370;48.916;8.380;2023-04-25T01:21:53;4.50;;;3.40;;
8665;SDS011;4370;48.916;8.380;2023-04-25T01:24:19;3.27;;;2.87;;
8665;SDS011;4370;48.916;8.380;2023-04-25T01:26:45;4.23;;;3.23;;
8665;SDS011;4370;48.916;8.380;2023-04-25T01:29:17;3.70;;;3.40;;
8665;SDS011;4370;48.916;8.380;2023-04-25T01:31:44;3.47;;;2.77;;
8665;SDS011;4370;48.916;8.380;2023-04-25T01:34:10;3.43;;;3.00;;
8665;SDS011;4370;48.916;8.380;2023-04-25T01:36:38;3.73;;;3.03;;
8665;SDS011;4370;48.916;8.380;2023-04-25T01:39:04;3.13;;;2.90;;
8665;SDS011;4370;48.916;8.380;2023-04-25T01:41:30;4.00;;;3.60;;
8665;SDS011;4370;48.916;8.380;2023-04-25T01:43:56;4.50;;;3.30;;
8665;SDS011;4370;48.916;8.380;2023-04-25T01:46:22;4.87;;;3.30;;
8665;SDS011;4370;48.916;8.380;2023-04-25T01:48:47;3.87;;;3.00;;
8665;SDS011;4370;48.916;8.380;2023-04-25T01:51:14;4.63;;;3.30;;
8665;SDS011;4370;48.916;8.380;2023-04-25T01:53:40;4.73;;;3.00;;
8665;SDS011;4370;48.916;8.380;2023-04-25T01:56:06;4.80;;;3.37;;
8665;SDS011;4370;48.916;8.380;2023-04-25T01:58:32;4.20;;;3.37;;
8665;SDS011;4370;48.916;8.380;2023-04-25T02:00:58;3.30;;;3.00;;
8665;SDS011;4370;48.916;8.380;2023-04-25T02:03:24;3.97;;;3.27;;
8665;SDS011;4370;48.916;8.380;2023-04-25T02:05:49;5.33;;;3.60;;
8665;SDS011;4370;48.916;8.380;2023-04-25T02:08:16;5.03;;;3.23;;
8665;SDS011;4370;48.916;8.380;2023-04-25T02:10:41;4.00;;;3.07;;
8665;SDS011;4370;48.916;8.380;2023-04-25T02:13:07;3.53;;;3.20;;
8665;SDS011;4370;48.916;8.380;2023-04-25T02:15:33;5.60;;;3.60;;
8665;SDS011;4370;48.916;8.380;2023-04-25T02:18:00;5.17;;;3.60;;
8665;SDS011;4370;48.916;8.380;2023-04-25T02:20:26;5.17;;;3.47;;
8665;SDS011;4370;48.916;8.380;2023-04-25T02:22:52;6.97;;;3.17;;
8665;SDS011;4370;48.916;8.380;2023-04-25T02:25:18;5.60;;;3.40;;
8665;SDS011;4370;48.916;8.380;2023-04-25T02:27:45;4.10;;;3.70;;
8665;SDS011;4370;48.916;8.380;2023-04-25T02:30:11;7.00;;;3.80;;
8665;SDS011;4370;48.916;8.380;2023-04-25T02:32:38;4.87;;;3.90;;
8665;SDS011;4370;48.916;8.380;2023-04-25T02:35:04;5.50;;;3.80;;
8665;SDS011;4370;48.916;8.380;2023-04-25T02:37:31;3.77;;;3.30;;
8665;SDS011;4370;48.916;8.380;2023-04-25T02:39:57;4.03;;;3.50;;
8665;SDS011;4370;48.916;8.380;2023-04-25T02:42:23;3.83;;;3.43;;
8665;SDS011;4370;48.916;8.380;2023-04-25T02:44:49;5.00;;;3.33;;
8665;SDS011;4370;48.916;8.380;2023-04-25T02:47:15;3.80;;;3.07;;
8665;SDS011;4370;48.916;8.380;2023-04-25T02:49:41;3.87;;;3.40;;
8665;SDS011;4370;48.916;8.380;2023-04-25T02:52:07;3.70;;;3.37;;
8665;SDS011;4370;48.916;8.380;2023-04-25T02:54:33;3.63;;;3.30;;
8665;SDS011;4370;48.916;8.380;2023-04-25T02:56:59;3.50;;;3.20;;
8665;SDS011;4370;48.916;8.380;2023-04-25T02:59:27;5.50;;;3.20;;
8665;SDS011;4370;48.916;8.380;2023-04-25T03:01:53;4.50;;;3.50;;
8665;SDS011;4370;48.916;8.380;2023-04-25T03:04:19;4.70;;;3.47;;
8665;SDS011;4370;48.916;8.380;2023-04-25T03:06:45;3.43;;;3.13;;
8665;SDS011;4370;48.916;8.380;2023-04-25T03:09:11;3.67;;;3.17;;
8665;SDS011;4370;48.916;8.380;2023-04-25T03:11:38;3.83;;;2.93;;
8665;SDS011;4370;48.916;8.380;2023-04-25T03:14:04;3.30;;;2.90;;
8665;SDS011;4370;48.916;8.380;2023-04-25T03:16:29;3.47;;;3.17;;
8665;SDS011;4370;48.916;8.380;2023-04-25T03:18:56;3.27;;;2.97;;
8665;SDS011;4370;48.916;8.380;2023-04-25T03:21:22;3.90;;;3.03;;
8665;SDS011;4370;48.916;8.380;2023-04-25T03:23:48;3.00;;;2.80;;
8665;SDS011;4370;48.916;8.380;2023-04-25T03:26:14;3.50;;;3.17;;
8665;SDS011;4370;48.916;8.380;2023-04-25T03:28:40;3.27;;;2.80;;
8665;SDS011;4370;48.916;8.380;2023-04-25T03:31:06;3.30;;;3.00;;
8665;SDS011;4370;48.916;8.380;2023-04-25T03:33:32;3.77;;;2.83;;
8665;SDS011;4370;48.916;8.380;2023-04-25T03:35:58;2.80;;;2.60;;
8665;SDS011;4370;48.916;8.380;2023-04-25T03:38:24;3.20;;;2.70;;
8665;SDS011;4370;48.916;8.380;2023-04-25T03:40:50;4.30;;;3.27;;
8665;SDS011;4370;48.916;8.380;2023-04-25T03:43:16;2.90;;;2.70;;
8665;SDS011;4370;48.916;8.380;2023-04-25T03:45:41;3.10;;;2.80;;
8665;SDS011;4370;48.916;8.380;2023-04-25T03:48:07;3.97;;;3.13;;
8665;SDS011;4370;48.916;8.380;2023-04-25T03:50:33;3.90;;;2.77;;
8665;SDS011;4370;48.916;8.380;2023-04-25T03:52:59;2.93;;;2.60;;
8665;SDS011;4370;48.916;8.380;2023-04-25T03:55:25;2.97;;;2.63;;
8665;SDS011;4370;48.916;8.380;2023-04-25T03:57:50;5.90;;;3.20;;
8665;SDS011;4370;48.916;8.380;2023-04-25T04:00:16;3.23;;;2.93;;
8665;SDS011;4370;48.916;8.380;2023-04-25T04:02:42;3.67;;;2.90;;
8665;SDS011;4370;48.916;8.380;2023-04-25T04:05:08;3.27;;;2.87;;
8665;SDS011;4370;48.916;8.380;2023-04-25T04:07:34;3.50;;;3.07;;
8665;SDS011;4370;48.916;8.380;2023-04-25T04:10:05;3.17;;;2.87;;
8665;SDS011;4370;48.916;8.380;2023-04-25T04:12:34;3.93;;;3.40;;
8665;SDS011;4370;48.916;8.380;2023-04-25T04:15:01;4.13;;;3.07;;
8665;SDS011;4370;48.916;8.380;2023-04-25T04:17:28;4.50;;;3.20;;
8665;SDS011;4370;48.916;8.380;2023-04-25T04:19:54;3.37;;;2.97;;
8665;SDS011;4370;48.916;8.380;2023-04-25T04:22:20;3.60;;;3.20;;
8665;SDS011;4370;48.916;8.380;2023-04-25T04:24:46;3.70;;;3.10;;
8665;SDS011;4370;48.916;8.380;2023-04-25T04:27:12;3.77;;;3.40;;
8665;SDS011;4370;48.916;8.380;2023-04-25T04:29:38;3.20;;;2.90;;
8665;SDS011;4370;48.916;8.380;2023-04-25T04:32:04;3.50;;;3.20;;
8665;SDS011;4370;48.916;8.380;2023-04-25T04:34:30;6.27;;;4.30;;
8665;SDS011;4370;48.916;8.380;2023-04-25T04:36:56;4.03;;;3.63;;
8665;SDS011;4370;48.916;8.380;2023-04-25T04:39:22;4.47;;;3.23;;
8665;SDS011;4370;48.916;8.380;2023-04-25T04:41:48;3.83;;;3.43;;
8665;SDS011;4370;48.916;8.380;2023-04-25T04:44:15;4.40;;;3.13;;
8665;SDS011;4370;48.916;8.380;2023-04-25T04:46:40;4.17;;;3.77;;
8665;SDS011;4370;48.916;8.380;2023-04-25T04:49:08;5.13;;;4.03;;
8665;SDS011;4370;48.916;8.380;2023-04-25T04:51:34;4.37;;;3.37;;
8665;SDS011;4370;48.916;8.380;2023-04-25T04:53:59;3.80;;;3.37;;
8665;SDS011;4370;48.916;8.380;2023-04-25T04:56:27;5.63;;;3.97;;
8665;SDS011;4370;48.916;8.380;2023-04-25T04:58:57;3.73;;;3.43;;
8665;SDS011;4370;48.916;8.380;2023-04-25T05:01:23;4.60;;;4.07;;
8665;SDS011;4370;48.916;8.380;2023-04-25T05:03:49;3.70;;;3.40;;
8665;SDS011;4370;48.916;8.380;2023-04-25T05:06:16;3.47;;;3.17;;
8665;SDS011;4370;48.916;8.380;2023-04-25T05:08:42;4.20;;;3.80;;
8665;SDS011;4370;48.916;8.380;2023-04-25T05:11:07;4.73;;;3.33;;
8665;SDS011;4370;48.916;8.380;2023-04-25T05:13:33;4.07;;;3.67;;
8665;SDS011;4370;48.916;8.380;2023-04-25T05:15:59;6.83;;;4.30;;
8665;SDS011;4370;48.916;8.380;2023-04-25T05:18:25;6.03;;;4.20;;
8665;SDS011;4370;48.916;8.380;2023-04-25T05:20:51;3.40;;;3.10;;
8665;SDS011;4370;48.916;8.380;2023-04-25T05:23:18;3.30;;;3.00;;
8665;SDS011;4370;48.916;8.380;2023-04-25T05:25:43;4.00;;;3.60;;
8665;SDS011;4370;48.916;8.380;2023-04-25T05:28:10;4.13;;;2.90;;
8665;SDS011;4370;48.916;8.380;2023-04-25T05:30:37;3.93;;;3.50;;
8665;SDS011;4370;48.916;8.380;2023-04-25T05:33:02;3.27;;;2.97;;
8665;SDS011;4370;48.916;8.380;2023-04-25T05:35:28;2.83;;;2.60;;
8665;SDS011;4370;48.916;8.380;2023-04-25T05:37:54;3.23;;;2.90;;
8665;SDS011;4370;48.916;8.380;2023-04-25T05:40:20;4.07;;;3.00;;
8665;SDS011;4370;48.916;8.380;2023-04-25T05:42:46;3.40;;;3.10;;
8665;SDS011;4370;48.916;8.380;2023-04-25T05:45:12;3.40;;;3.10;;
8665;SDS011;4370;48.916;8.380;2023-04-25T05:47:38;4.30;;;3.40;;
8665;SDS011;4370;48.916;8.380;2023-04-25T05:50:04;3.43;;;3.10;;
8665;SDS011;4370;48.916;8.380;2023-04-25T05:52:29;4.70;;;3.20;;
8665;SDS011;4370;48.916;8.380;2023-04-25T05:54:55;3.50;;;3.20;;
8665;SDS011;4370;48.916;8.380;2023-04-25T05:57:22;3.53;;;3.00;;
8665;SDS011;4370;48.916;8.380;2023-04-25T05:59:49;3.57;;;3.13;;
8665;SDS011;4370;48.916;8.380;2023-04-25T06:02:15;3.10;;;2.80;;
8665;SDS011;4370;48.916;8.380;2023-04-25T06:04:41;3.23;;;2.93;;
8665;SDS011;4370;48.916;8.380;2023-04-25T06:07:07;2.70;;;2.50;;
8665;SDS011;4370;48.916;8.380;2023-04-25T06:09:32;3.07;;;2.77;;
8665;SDS011;4370;48.916;8.380;2023-04-25T06:11:58;3.17;;;2.83;;
8665;SDS011;4370;48.916;8.380;2023-04-25T06:14:24;5.87;;;2.80;;
8665;SDS011;4370;48.916;8.380;2023-04-25T06:16:50;2.70;;;2.50;;
8665;SDS011;4370;48.916;8.380;2023-04-25T06:19:15;2.80;;;2.50;;
8665;SDS011;4370;48.916;8.380;2023-04-25T06:21:43;3.17;;;2.50;;
8665;SDS011;4370;48.916;8.380;2023-04-25T06:24:09;2.90;;;2.60;;
8665;SDS011;4370;48.916;8.380;2023-04-25T06:26:35;2.77;;;2.57;;
8665;SDS011;4370;48.916;8.380;2023-04-25T06:29:00;3.03;;;2.73;;
8665;SDS011;4370;48.916;8.380;2023-04-25T06:31:26;3.07;;;2.30;;
8665;SDS011;4370;48.916;8.380;2023-04-25T06:33:53;3.83;;;2.43;;
8665;SDS011;4370;48.916;8.380;2023-04-25T06:36:19;3.30;;;2.60;;
8665;SDS011;4370;48.916;8.380;2023-04-25T06:38:50;4.80;;;2.40;;
8665;SDS011;4370;48.916;8.380;2023-04-25T06:41:15;3.33;;;2.60;;
8665;SDS011;4370;48.916;8.380;2023-04-25T06:43:41;2.77;;;2.53;;
8665;SDS011;4370;48.916;8.380;2023-04-25T06:46:07;3.73;;;2.90;;
8665;SDS011;4370;48.916;8.380;2023-04-25T06:48:33;3.13;;;2.83;;
8665;SDS011;4370;48.916;8.380;2023-04-25T06:50:59;5.13;;;2.80;;
8665;SDS011;4370;48.916;8.380;2023-04-25T06:53:25;3.80;;;3.00;;
8665;SDS011;4370;48.916;8.380;2023-04-25T06:55:50;4.90;;;3.50;;
8665;SDS011;4370;48.916;8.380;2023-04-25T06:58:17;4.40;;;3.50;;
8665;SDS011;4370;48.916;8.380;2023-04-25T07:00:42;4.57;;;3.40;;
8665;SDS011;4370;48.916;8.380;2023-04-25T07:03:08;4.37;;;3.43;;
8665;SDS011;4370;48.916;8.380;2023-04-25T07:05:34;3.03;;;2.53;;
8665;SDS011;4370;48.916;8.380;2023-04-25T07:08:00;3.63;;;2.90;;
8665;SDS011;4370;48.916;8.380;2023-04-25T07:10:26;3.33;;;3.03;;
8665;SDS011;4370;48.916;8.380;2023-04-25T07:12:52;3.03;;;2.73;;
8665;SDS011;4370;48.916;8.380;2023-04-25T07:15:18;3.17;;;2.90;;
8665;SDS011;4370;48.916;8.380;2023-04-25T07:17:44;3.03;;;2.83;;
8665;SDS011;4370;48.916;8.380;2023-04-25T07:20:10;3.43;;;3.13;;
8665;SDS011;4370;48.916;8.380;2023-04-25T07:22:36;4.47;;;3.40;;
8665;SDS011;4370;48.916;8.380;2023-04-25T07:25:01;4.67;;;3.47;;
8665;SDS011;4370;48.916;8.380;2023-04-25T07:27:29;5.00;;;3.93;;
8665;SDS011;4370;48.916;8.380;2023-04-25T07:29:54;4.53;;;3.47;;
8665;SDS011;4370;48.916;8.380;2023-04-25T07:32:20;4.80;;;4.27;;
8665;SDS011;4370;48.916;8.380;2023-04-25T07:34:46;4.43;;;4.00;;
8665;SDS011;4370;48.916;8.380;2023-04-25T07:37:12;5.47;;;4.47;;
8665;SDS011;4370;48.916;8.380;2023-04-25T07:39:39;8.73;;;4.50;;
8665;SDS011;4370;48.916;8.380;2023-04-25T07:42:05;5.23;;;4.73;;
8665;SDS011;4370;48.916;8.380;2023-04-25T07:44:32;5.17;;;4.63;;
8665;SDS011;4370;48.916;8.380;2023-04-25T07:47:03;5.30;;;4.80;;
8665;SDS011;4370;48.916;8.380;2023-04-25T07:49:29;4.90;;;4.40;;
8665;SDS011;4370;48.916;8.380;2023-04-25T07:51:55;7.83;;;5.03;;
8665;SDS011;4370;48.916;8.380;2023-04-25T07:54:20;6.00;;;5.20;;
8665;SDS011;4370;48.916;8.380;2023-04-25T07:56:46;6.73;;;5.43;;
8665;SDS011;4370;48.916;8.380;2023-04-25T07:59:11;7.67;;;6.87;;
8665;SDS011;4370;48.916;8.380;2023-04-25T08:01:37;6.87;;;5.23;;
8665;SDS011;4370;48.916;8.380;2023-04-25T08:04:02;7.57;;;5.33;;
8665;SDS011;4370;48.916;8.380;2023-04-25T08:06:28;7.93;;;5.90;;
8665;SDS011;4370;48.916;8.380;2023-04-25T08:08:54;6.67;;;5.03;;
8665;SDS011;4370;48.916;8.380;2023-04-25T08:11:20;6.43;;;4.67;;
8665;SDS011;4370;48.916;8.380;2023-04-25T08:13:46;6.13;;;5.03;;
8665;SDS011;4370;48.916;8.380;2023-04-25T08:16:12;6.23;;;4.80;;
8665;SDS011;4370;48.916;8.380;2023-04-25T08:18:37;5.70;;;5.03;;
8665;SDS011;4370;48.916;8.380;2023-04-25T08:21:03;5.37;;;4.87;;
8665;SDS011;4370;48.916;8.380;2023-04-25T08:23:29;5.37;;;4.87;;
8665;SDS011;4370;48.916;8.380;2023-04-25T08:25:55;6.03;;;5.30;;
8665;SDS011;4370;48.916;8.380;2023-04-25T08:28:21;6.83;;;5.33;;
8665;SDS011;4370;48.916;8.380;2023-04-25T08:30:47;6.50;;;5.40;;
8665;SDS011;4370;48.916;8.380;2023-04-25T08:33:13;7.13;;;5.60;;
8665;SDS011;4370;48.916;8.380;2023-04-25T08:35:38;7.67;;;6.50;;
8665;SDS011;4370;48.916;8.380;2023-04-25T08:38:04;7.10;;;6.20;;
8665;SDS011;4370;48.916;8.380;2023-04-25T08:40:30;6.80;;;5.80;;
8665;SDS011;4370;48.916;8.380;2023-04-25T08:43:02;6.93;;;5.23;;
8665;SDS011;4370;48.916;8.380;2023-04-25T08:45:31;6.27;;;5.57;;
8665;SDS011;4370;48.916;8.380;2023-04-25T08:47:58;7.27;;;5.60;;
8665;SDS011;4370;48.916;8.380;2023-04-25T08:50:24;7.57;;;5.93;;
8665;SDS011;4370;48.916;8.380;2023-04-25T08:52:51;6.67;;;5.60;;
8665;SDS011;4370;48.916;8.380;2023-04-25T08:55:18;6.20;;;4.97;;
8665;SDS011;4370;48.916;8.380;2023-04-25T08:57:46;7.90;;;5.60;;
8665;SDS011;4370;48.916;8.380;2023-04-25T09:00:12;7.03;;;5.80;;
8665;SDS011;4370;48.916;8.380;2023-04-25T09:02:39;6.77;;;5.67;;
8665;SDS011;4370;48.916;8.380;2023-04-25T09:05:05;5.63;;;5.03;;
8665;SDS011;4370;48.916;8.380;2023-04-25T09:07:32;8.20;;;6.03;;
8665;SDS011;4370;48.916;8.380;2023-04-25T09:09:57;7.47;;;6.00;;
8665;SDS011;4370;48.916;8.380;2023-04-25T09:12:26;6.60;;;5.90;;
8665;SDS011;4370;48.916;8.380;2023-04-25T09:15:03;6.03;;;5.43;;
8665;SDS011;4370;48.916;8.380;2023-04-25T09:17:30;6.93;;;5.47;;
8665;SDS011;4370;48.916;8.380;2023-04-25T09:20:05;6.10;;;5.00;;
8665;SDS011;4370;48.916;8.380;2023-04-25T09:22:32;6.47;;;5.37;;
8665;SDS011;4370;48.916;8.380;2023-04-25T09:24:58;6.87;;;6.17;;
8665;SDS011;4370;48.916;8.380;2023-04-25T09:27:34;5.80;;;5.23;;
8665;SDS011;4370;48.916;8.380;2023-04-25T09:30:00;6.43;;;5.23;;
8665;SDS011;4370;48.916;8.380;2023-04-25T09:32:27;6.83;;;5.00;;
8665;SDS011;4370;48.916;8.380;2023-04-25T09:34:53;7.43;;;4.70;;
8665;SDS011;4370;48.916;8.380;2023-04-25T09:37:21;5.43;;;4.40;;
8665;SDS011;4370;48.916;8.380;2023-04-25T09:39:49;3.90;;;3.57;;
8665;SDS011;4370;48.916;8.380;2023-04-25T09:42:27;4.27;;;2.50;;
8665;SDS011;4370;48.916;8.380;2023-04-25T09:44:54;3.00;;;2.70;;
8665;SDS011;4370;48.916;8.380;2023-04-25T09:47:20;3.20;;;2.33;;
8665;SDS011;4370;48.916;8.380;2023-04-25T09:49:48;2.90;;;2.60;;
8665;SDS011;4370;48.916;8.380;2023-04-25T09:52:16;2.63;;;2.37;;
8665;SDS011;4370;48.916;8.380;2023-04-25T09:54:43;2.47;;;2.23;;
8665;SDS011;4370;48.916;8.380;2023-04-25T09:57:11;2.47;;;2.27;;
8665;SDS011;4370;48.916;8.380;2023-04-25T09:59:38;2.70;;;2.23;;
8665;SDS011;4370;48.916;8.380;2023-04-25T10:02:07;3.10;;;2.60;;
8665;SDS011;4370;48.916;8.380;2023-04-25T10:04:34;3.43;;;2.77;;
8665;SDS011;4370;48.916;8.380;2023-04-25T10:07:01;3.90;;;3.40;;
8665;SDS011;4370;48.916;8.380;2023-04-25T10:09:30;4.13;;;3.33;;
8665;SDS011;4370;48.916;8.380;2023-04-25T10:12:00;4.40;;;3.43;;
8665;SDS011;4370;48.916;8.380;2023-04-25T10:14:26;4.33;;;3.77;;
8665;SDS011;4370;48.916;8.380;2023-04-25T10:16:53;4.90;;;4.40;;
8665;SDS011;4370;48.916;8.380;2023-04-25T10:19:20;5.40;;;3.73;;
8665;SDS011;4370;48.916;8.380;2023-04-25T10:21:48;4.07;;;3.60;;
8665;SDS011;4370;48.916;8.380;2023-04-25T10:24:16;4.53;;;4.03;;
8665;SDS011;4370;48.916;8.380;2023-04-25T10:26:44;5.17;;;4.67;;
8665;SDS011;4370;48.916;8.380;2023-04-25T10:29:10;5.77;;;4.50;;
8665;SDS011;4370;48.916;8.380;2023-04-25T10:31:44;6.93;;;4.70;;
8665;SDS011;4370;48.916;8.380;2023-04-25T10:34:10;5.27;;;4.40;;
8665;SDS011;4370;48.916;8.380;2023-04-25T10:36:36;4.90;;;3.90;;
8665;SDS011;4370;48.916;8.380;2023-04-25T10:39:05;4.33;;;3.80;;
8665;SDS011;4370;48.916;8.380;2023-04-25T10:41:47;5.40;;;3.73;;
8665;SDS011;4370;48.916;8.380;2023-04-25T10:44:26;3.57;;;3.27;;
8665;SDS011;4370;48.916;8.380;2023-04-25T10:46:57;3.90;;;3.50;;
8665;SDS011;4370;48.916;8.380;2023-04-25T10:49:34;3.70;;;3.27;;
8665;SDS011;4370;48.916;8.380;2023-04-25T10:52:12;3.30;;;3.00;;
8665;SDS011;4370;48.916;8.380;2023-04-25T10:54:55;3.57;;;3.27;;
8665;SDS011;4370;48.916;8.380;2023-04-25T10:57:28;4.27;;;3.30;;
8665;SDS011;4370;48.916;8.380;2023-04-25T11:00:11;5.00;;;3.77;;
8665;SDS011;4370;48.916;8.380;2023-04-25T11:02:44;3.37;;;3.00;;
8665;SDS011;4370;48.916;8.380;2023-04-25T11:05:16;4.63;;;2.90;;
8665;SDS011;4370;48.916;8.380;2023-04-25T11:07:54;3.63;;;3.03;;
8665;SDS011;4370;48.916;8.380;2023-04-25T11:10:25;3.43;;;2.90;;
8665;SDS011;4370;48.916;8.380;2023-04-25T11:12:52;2.93;;;2.70;;
8665;SDS011;4370;48.916;8.380;2023-04-25T11:15:17;3.20;;;2.90;;
8665;SDS011;4370;48.916;8.380;2023-04-25T11:17:43;3.73;;;2.80;;
8665;SDS011;4370;48.916;8.380;2023-04-25T11:20:11;3.10;;;2.80;;
8665;SDS011;4370;48.916;8.380;2023-04-25T11:22:38;4.60;;;3.20;;
8665;SDS011;4370;48.916;8.380;2023-04-25T11:25:06;3.00;;;2.70;;
8665;SDS011;4370;48.916;8.380;2023-04-25T11:27:54;3.43;;;3.13;;
8665;SDS011;4370;48.916;8.380;2023-04-25T11:30:22;3.33;;;3.03;;
8665;SDS011;4370;48.916;8.380;2023-04-25T11:32:48;3.43;;;3.13;;
8665;SDS011;4370;48.916;8.380;2023-04-25T11:35:15;3.70;;;3.40;;
8665;SDS011;4370;48.916;8.380;2023-04-25T11:37:41;3.37;;;2.83;;
8665;SDS011;4370;48.916;8.380;2023-04-25T11:40:08;2.93;;;2.70;;
8665;SDS011;4370;48.916;8.380;2023-04-25T11:42:37;3.20;;;2.90;;
8665;SDS011;4370;48.916;8.380;2023-04-25T11:45:12;3.20;;;3.00;;
8665;SDS011;4370;48.916;8.380;2023-04-25T11:47:39;3.80;;;2.90;;
8665;SDS011;4370;48.916;8.380;2023-04-25T11:50:06;4.90;;;2.83;;
8665;SDS011;4370;48.916;8.380;2023-04-25T11:52:36;4.43;;;2.80;;
8665;SDS011;4370;48.916;8.380;2023-04-25T11:55:04;2.83;;;2.60;;
8665;SDS011;4370;48.916;8.380;2023-04-25T11:57:31;4.70;;;3.63;;
8665;SDS011;4370;48.916;8.380;2023-04-25T12:02:46;4.83;;;3.40;;
8665;SDS011;4370;48.916;8.380;2023-04-25T12:05:15;4.70;;;4.17;;
8665;SDS011;4370;48.916;8.380;2023-04-25T12:07:41;4.87;;;4.30;;
8665;SDS011;4370;48.916;8.380;2023-04-25T12:10:12;5.07;;;4.57;;
8665;SDS011;4370;48.916;8.380;2023-04-25T12:12:42;5.10;;;4.53;;
8665;SDS011;4370;48.916;8.380;2023-04-25T12:15:13;7.53;;;4.60;;
8665;SDS011;4370;48.916;8.380;2023-04-25T12:17:58;6.03;;;5.07;;
8665;SDS011;4370;48.916;8.380;2023-04-25T12:20:25;6.13;;;4.90;;
8665;SDS011;4370;48.916;8.380;2023-04-25T12:22:51;6.83;;;5.63;;
8665;SDS011;4370;48.916;8.380;2023-04-25T12:28:10;7.10;;;5.60;;
8665;SDS011;4370;48.916;8.380;2023-04-25T12:33:36;6.70;;;6.00;;
8665;SDS011;4370;48.916;8.380;2023-04-25T12:36:04;7.07;;;6.07;;
8665;SDS011;4370;48.916;8.380;2023-04-25T12:38:37;7.57;;;5.57;;
8665;SDS011;4370;48.916;8.380;2023-04-25T12:41:04;6.80;;;5.70;;
8665;SDS011;4370;48.916;8.380;2023-04-25T12:43:30;6.03;;;5.40;;
8665;SDS011;4370;48.916;8.380;2023-04-25T12:45:56;7.07;;;5.50;;
8665;SDS011;4370;48.916;8.380;2023-04-25T12:48:22;5.57;;;5.00;;
8665;SDS011;4370;48.916;8.380;2023-04-25T12:50:48;6.80;;;5.03;;
8665;SDS011;4370;48.916;8.380;2023-04-25T12:53:16;6.40;;;4.73;;
8665;SDS011;4370;48.916;8.380;2023-04-25T12:55:43;6.03;;;4.97;;
8665;SDS011;4370;48.916;8.380;2023-04-25T12:58:11;7.07;;;5.00;;
8665;SDS011;4370;48.916;8.380;2023-04-25T13:00:36;6.33;;;4.60;;
8665;SDS011;4370;48.916;8.380;2023-04-25T13:03:02;6.77;;;5.83;;
8665;SDS011;4370;48.916;8.380;2023-04-25T13:05:29;9.67;;;6.43;;
8665;SDS011;4370;48.916;8.380;2023-04-25T13:07:55;7.00;;;5.60;;
8665;SDS011;4370;48.916;8.380;2023-04-25T13:10:21;6.47;;;4.67;;
8665;SDS011;4370;48.916;8.380;2023-04-25T13:12:46;6.13;;;4.60;;
8665;SDS011;4370;48.916;8.380;2023-04-25T13:15:12;7.00;;;5.67;;
8665;SDS011;4370;48.916;8.380;2023-04-25T13:17:40;6.23;;;4.80;;
8665;SDS011;4370;48.916;8.380;2023-04-25T13:20:06;5.30;;;4.10;;
8665;SDS011;4370;48.916;8.380;2023-04-25T13:22:34;4.27;;;3.70;;
8665;SDS011;4370;48.916;8.380;2023-04-25T13:25:03;5.40;;;3.50;;
8665;SDS011;4370;48.916;8.380;2023-04-25T13:27:30;3.50;;;3.17;;
8665;SDS011;4370;48.916;8.380;2023-04-25T13:29:58;3.87;;;3.07;;
8665;SDS011;4370;48.916;8.380;2023-04-25T13:32:25;4.00;;;3.40;;
8665;SDS011;4370;48.916;8.380;2023-04-25T13:34:51;3.03;;;2.73;;
8665;SDS011;4370;48.916;8.380;2023-04-25T13:37:16;4.10;;;2.77;;
8665;SDS011;4370;48.916;8.380;2023-04-25T13:39:42;3.67;;;2.60;;
8665;SDS011;4370;48.916;8.380;2023-04-25T13:42:08;2.93;;;2.63;;
8665;SDS011;4370;48.916;8.380;2023-04-25T13:44:33;13.80;;;2.80;;
8665;SDS011;4370;48.916;8.380;2023-04-25T13:46:59;2.73;;;2.20;;
8665;SDS011;4370;48.916;8.380;2023-04-25T13:49:25;2.83;;;1.90;;
8665;SDS011;4370;48.916;8.380;2023-04-25T13:51:51;2.60;;;2.20;;
8665;SDS011;4370;48.916;8.380;2023-04-25T13:54:17;2.10;;;1.90;;
8665;SDS011;4370;48.916;8.380;2023-04-25T13:56:43;2.43;;;1.70;;
8665;SDS011;4370;48.916;8.380;2023-04-25T13:59:10;1.90;;;1.70;;
8665;SDS011;4370;48.916;8.380;2023-04-25T14:01:36;1.77;;;1.67;;
8665;SDS011;4370;48.916;8.380;2023-04-25T14:04:02;2.63;;;1.90;;
8665;SDS011;4370;48.916;8.380;2023-04-25T14:06:29;4.17;;;2.10;;
8665;SDS011;4370;48.916;8.380;2023-04-25T14:08:55;2.43;;;1.93;;
8665;SDS011;4370;48.916;8.380;2023-04-25T14:11:21;2.63;;;2.00;;
8665;SDS011;4370;48.916;8.380;2023-04-25T14:13:47;2.23;;;1.83;;
8665;SDS011;4370;48.916;8.380;2023-04-25T14:16:14;2.20;;;2.00;;
8665;SDS011;4370;48.916;8.380;2023-04-25T14:18:40;2.40;;;2.20;;
8665;SDS011;4370;48.916;8.380;2023-04-25T14:21:06;3.33;;;2.37;;
8665;SDS011;4370;48.916;8.380;2023-04-25T14:23:32;2.97;;;2.40;;
8665;SDS011;4370;48.916;8.380;2023-04-25T14:25:58;3.57;;;2.20;;
8665;SDS011;4370;48.916;8.380;2023-04-25T14:28:25;2.50;;;2.30;;
8665;SDS011;4370;48.916;8.380;2023-04-25T14:30:50;2.97;;;2.30;;
8665;SDS011;4370;48.916;8.380;2023-04-25T14:33:16;4.07;;;2.63;;
8665;SDS011;4370;48.916;8.380;2023-04-25T14:35:42;4.87;;;2.73;;
8665;SDS011;4370;48.916;8.380;2023-04-25T14:38:07;4.83;;;2.83;;
8665;SDS011;4370;48.916;8.380;2023-04-25T14:40:33;4.43;;;2.50;;
8665;SDS011;4370;48.916;8.380;2023-04-25T14:42:59;4.70;;;2.83;;
8665;SDS011;4370;48.916;8.380;2023-04-25T14:45:25;4.90;;;2.90;;
8665;SDS011;4370;48.916;8.380;2023-04-25T14:47:51;4.83;;;2.83;;
8665;SDS011;4370;48.916;8.380;2023-04-25T14:50:17;6.57;;;3.00;;
8665;SDS011;4370;48.916;8.380;2023-04-25T14:52:42;4.97;;;2.70;;
8665;SDS011;4370;48.916;8.380;2023-04-25T14:55:09;4.23;;;2.73;;
8665;SDS011;4370;48.916;8.380;2023-04-25T14:57:36;3.63;;;2.80;;
8665;SDS011;4370;48.916;8.380;2023-04-25T15:00:02;5.17;;;2.90;;
8665;SDS011;4370;48.916;8.380;2023-04-25T15:02:30;4.47;;;2.57;;
8665;SDS011;4370;48.916;8.380;2023-04-25T15:04:56;3.83;;;2.63;;
8665;SDS011;4370;48.916;8.380;2023-04-25T15:07:22;4.17;;;2.90;;
8665;SDS011;4370;48.916;8.380;2023-04-25T15:09:48;3.60;;;2.40;;
8665;SDS011;4370;48.916;8.380;2023-04-25T15:12:13;4.23;;;2.60;;
8665;SDS011;4370;48.916;8.380;2023-04-25T15:14:40;3.90;;;2.50;;
8665;SDS011;4370;48.916;8.380;2023-04-25T15:17:06;6.03;;;3.10;;
8665;SDS011;4370;48.916;8.380;2023-04-25T15:19:32;4.77;;;3.10;;
8665;SDS011;4370;48.916;8.380;2023-04-25T15:21:58;5.70;;;3.03;;